createdAt,value
2019-05-05T00:00:17.483Z,1009.67
2019-05-05T00:01:17.471Z,1009.65
2019-05-05T00:02:17.461Z,1009.63
2019-05-05T00:03:17.492Z,1009.68
2019-05-05T00:04:17.466Z,1009.69
2019-05-05T00:05:17.428Z,1009.72
2019-05-05T00:06:17.419Z,1009.72
2019-05-05T00:07:17.453Z,1009.74
2019-05-05T00:08:17.397Z,1009.75
2019-05-05T00:09:17.385Z,1009.77
2019-05-05T00:10:17.374Z,1009.84
2019-05-05T00:11:17.366Z,1009.80
2019-05-05T00:12:17.354Z,1009.79
2019-05-05T00:13:17.383Z,1009.80
2019-05-05T00:14:17.329Z,1009.85
2019-05-05T00:15:17.355Z,1009.83
2019-05-05T00:16:17.354Z,1009.81
2019-05-05T00:17:17.294Z,1009.83
2019-05-05T00:18:17.285Z,1009.85
2019-05-05T00:19:29.778Z,1009.85
2019-05-05T00:20:18.261Z,1009.83
2019-05-05T00:21:17.250Z,1009.83
2019-05-05T00:22:17.289Z,1009.83
2019-05-05T00:23:17.228Z,1009.88
2019-05-05T00:24:17.219Z,1009.86
2019-05-05T00:25:17.207Z,1009.87
2019-05-05T00:26:17.238Z,1009.88
2019-05-05T00:27:17.182Z,1009.88
2019-05-05T00:28:17.175Z,1009.89
2019-05-05T00:29:17.164Z,1009.86
2019-05-05T00:30:17.190Z,1009.91
2019-05-05T00:31:17.179Z,1009.89
2019-05-05T00:32:17.166Z,1009.89
2019-05-05T00:33:17.120Z,1009.90
2019-05-05T00:34:17.105Z,1009.88
2019-05-05T00:35:17.098Z,1009.88
2019-05-05T00:36:17.085Z,1009.91
2019-05-05T00:37:17.114Z,1009.92
2019-05-05T00:38:17.100Z,1009.89
2019-05-05T00:39:17.058Z,1009.92
2019-05-05T00:40:17.041Z,1009.96
2019-05-05T00:41:17.029Z,1009.96
2019-05-05T00:42:17.019Z,1009.99
2019-05-05T00:43:17.059Z,1010.00
2019-05-05T00:44:16.996Z,1009.98
2019-05-05T00:45:16.997Z,1010.00
2019-05-05T00:46:16.973Z,1009.98
2019-05-05T00:47:16.969Z,1010.01
2019-05-05T00:48:16.992Z,1010.01
2019-05-05T00:49:16.939Z,1010.03
2019-05-05T00:50:16.931Z,1010.00
2019-05-05T00:51:16.962Z,1010.06
2019-05-05T00:52:16.910Z,1010.04
2019-05-05T00:53:16.896Z,1010.08
2019-05-05T00:54:16.885Z,1010.07
2019-05-05T00:55:16.876Z,1010.10
2019-05-05T00:56:16.861Z,1010.06
2019-05-05T00:57:16.890Z,1010.08
2019-05-05T00:58:16.841Z,1010.12
2019-05-05T00:59:16.827Z,1010.13
2019-05-05T01:00:16.821Z,1010.11
2019-05-05T01:01:16.804Z,1010.10
2019-05-05T01:02:16.841Z,1010.12
2019-05-05T01:03:16.785Z,1010.13
2019-05-05T01:04:16.773Z,1010.10
2019-05-05T01:05:16.760Z,1010.10
2019-05-05T01:06:16.752Z,1010.10
2019-05-05T01:07:16.781Z,1010.09
2019-05-05T01:08:16.770Z,1010.07
2019-05-05T01:09:16.717Z,1010.08
2019-05-05T01:10:16.707Z,1010.12
2019-05-05T01:11:16.698Z,1010.07
2019-05-05T01:12:16.687Z,1010.17
2019-05-05T01:13:16.672Z,1010.20
2019-05-05T01:14:16.707Z,1010.17
2019-05-05T01:15:16.656Z,1010.15
2019-05-05T01:16:16.687Z,1010.16
2019-05-05T01:17:16.629Z,1010.14
2019-05-05T01:18:16.622Z,1010.14
2019-05-05T01:19:16.613Z,1010.15
2019-05-05T01:20:16.637Z,1010.21
2019-05-05T01:21:16.584Z,1010.20
2019-05-05T01:22:16.577Z,1010.20
2019-05-05T01:23:16.604Z,1010.17
2019-05-05T01:24:16.554Z,1010.15
2019-05-05T01:25:16.540Z,1010.15
2019-05-05T01:26:16.530Z,1010.21
2019-05-05T01:27:16.519Z,1010.13
2019-05-05T01:28:16.512Z,1010.16
2019-05-05T01:29:16.541Z,1010.19
2019-05-05T01:30:16.488Z,1010.17
2019-05-05T01:31:16.477Z,1010.22
2019-05-05T01:32:16.500Z,1010.20
2019-05-05T01:33:16.451Z,1010.21
2019-05-05T01:34:16.441Z,1010.21
2019-05-05T01:35:16.428Z,1010.23
2019-05-05T01:36:16.419Z,1010.25
2019-05-05T01:37:16.447Z,1010.24
2019-05-05T01:38:16.404Z,1010.28
2019-05-05T01:39:16.386Z,1010.25
2019-05-05T01:40:16.373Z,1010.26
2019-05-05T01:41:16.410Z,1010.29
2019-05-05T01:42:16.355Z,1010.30
2019-05-05T01:43:16.381Z,1010.23
2019-05-05T01:44:16.373Z,1010.23
2019-05-05T01:45:16.322Z,1010.28
2019-05-05T01:46:16.314Z,1010.28
2019-05-05T01:47:16.295Z,1010.32
2019-05-05T01:48:16.287Z,1010.31
2019-05-05T01:49:16.276Z,1010.33
2019-05-05T01:50:20.876Z,1010.33
2019-05-05T01:51:17.256Z,1010.35
2019-05-05T01:52:16.240Z,1010.34
2019-05-05T01:53:16.230Z,1010.37
2019-05-05T01:54:16.218Z,1010.37
2019-05-05T01:55:16.233Z,1010.38
2019-05-05T01:56:16.234Z,1010.38
2019-05-05T01:57:16.232Z,1010.41
2019-05-05T01:58:16.180Z,1010.35
2019-05-05T01:59:16.163Z,1010.38
2019-05-05T02:00:16.193Z,1010.39
2019-05-05T02:01:16.186Z,1010.42
2019-05-05T02:02:16.177Z,1010.41
2019-05-05T02:03:16.123Z,1010.41
2019-05-05T02:04:16.107Z,1010.43
2019-05-05T02:05:16.096Z,1010.40
2019-05-05T02:06:16.086Z,1010.37
2019-05-05T02:07:16.078Z,1010.39
2019-05-05T02:08:16.104Z,1010.39
2019-05-05T02:09:16.089Z,1010.41
2019-05-05T02:10:16.051Z,1010.37
2019-05-05T02:11:16.031Z,1010.37
2019-05-05T02:12:16.111Z,1010.36
2019-05-05T02:13:16.188Z,1010.36
2019-05-05T02:14:15.999Z,1010.38
2019-05-05T02:15:15.985Z,1010.40
2019-05-05T02:16:15.974Z,1010.36
2019-05-05T02:17:15.965Z,1010.38
2019-05-05T02:18:15.994Z,1010.35
2019-05-05T02:19:15.993Z,1010.38
2019-05-05T02:20:28.656Z,1010.39
2019-05-05T02:21:16.918Z,1010.39
2019-05-05T02:22:15.910Z,1010.41
2019-05-05T02:23:15.939Z,1010.39
2019-05-05T02:24:15.892Z,1010.39
2019-05-05T02:25:15.888Z,1010.38
2019-05-05T02:26:15.866Z,1010.41
2019-05-05T02:27:15.892Z,1010.41
2019-05-05T02:28:15.846Z,1010.40
2019-05-05T02:29:15.878Z,1010.44
2019-05-05T02:30:16.359Z,1010.42
2019-05-05T02:31:16.797Z,1010.43
2019-05-05T02:32:16.152Z,1010.43
2019-05-05T02:33:15.951Z,1010.42
2019-05-05T02:34:16.570Z,1010.44
2019-05-05T02:35:16.624Z,1010.42
2019-05-05T02:36:16.122Z,1010.44
2019-05-05T02:37:16.163Z,1010.45
2019-05-05T02:38:15.964Z,1010.53
2019-05-05T02:39:16.193Z,1010.51
2019-05-05T02:40:16.132Z,1010.50
2019-05-05T02:41:15.751Z,1010.50
2019-05-05T02:42:15.687Z,1010.49
2019-05-05T02:43:15.685Z,1010.55
2019-05-05T02:44:15.745Z,1010.52
2019-05-05T02:45:15.795Z,1010.57
2019-05-05T02:46:15.643Z,1010.54
2019-05-05T02:47:15.816Z,1010.56
2019-05-05T02:48:15.744Z,1010.59
2019-05-05T02:49:15.610Z,1010.61
2019-05-05T02:50:15.706Z,1010.55
2019-05-05T02:51:15.630Z,1010.59
2019-05-05T02:52:15.577Z,1010.59
2019-05-05T02:53:15.572Z,1010.59
2019-05-05T02:54:15.557Z,1010.58
2019-05-05T02:55:15.591Z,1010.57
2019-05-05T02:56:15.533Z,1010.59
2019-05-05T02:57:15.602Z,1010.61
2019-05-05T02:58:15.509Z,1010.62
2019-05-05T02:59:15.544Z,1010.56
2019-05-05T03:00:15.487Z,1010.57
2019-05-05T03:01:15.479Z,1010.56
2019-05-05T03:02:15.467Z,1010.62
2019-05-05T03:03:15.453Z,1010.64
2019-05-05T03:04:15.490Z,1010.67
2019-05-05T03:05:15.440Z,1010.66
2019-05-05T03:06:15.424Z,1010.70
2019-05-05T03:07:15.410Z,1010.63
2019-05-05T03:08:15.422Z,1010.71
2019-05-05T03:09:15.434Z,1010.70
2019-05-05T03:10:15.377Z,1010.72
2019-05-05T03:11:15.370Z,1010.72
2019-05-05T03:12:15.355Z,1010.68
2019-05-05T03:13:15.345Z,1010.71
2019-05-05T03:14:15.332Z,1010.78
2019-05-05T03:15:15.366Z,1010.82
2019-05-05T03:16:15.353Z,1010.76
2019-05-05T03:17:15.301Z,1010.75
2019-05-05T03:18:15.288Z,1010.77
2019-05-05T03:19:15.278Z,1010.84
2019-05-05T03:20:15.267Z,1010.79
2019-05-05T03:21:15.254Z,1010.81
2019-05-05T03:22:15.291Z,1010.83
2019-05-05T03:23:15.236Z,1010.85
2019-05-05T03:24:15.221Z,1010.84
2019-05-05T03:25:15.258Z,1010.85
2019-05-05T03:26:15.202Z,1010.80
2019-05-05T03:27:15.193Z,1010.84
2019-05-05T03:28:15.220Z,1010.81
2019-05-05T03:29:15.166Z,1010.82
2019-05-05T03:30:15.589Z,1010.84
2019-05-05T03:31:16.271Z,1010.89
2019-05-05T03:32:16.335Z,1010.91
2019-05-05T03:33:16.207Z,1010.86
2019-05-05T03:34:16.347Z,1010.91
2019-05-05T03:35:15.101Z,1010.88
2019-05-05T03:36:15.090Z,1010.94
2019-05-05T03:37:15.119Z,1010.90
2019-05-05T03:38:15.070Z,1010.88
2019-05-05T03:39:15.057Z,1010.87
2019-05-05T03:40:15.055Z,1010.88
2019-05-05T03:41:15.036Z,1010.92
2019-05-05T03:42:15.024Z,1010.92
2019-05-05T03:43:15.053Z,1010.90
2019-05-05T03:44:15.000Z,1010.92
2019-05-05T03:45:14.989Z,1010.94
2019-05-05T03:46:14.990Z,1010.98
2019-05-05T03:47:15.021Z,1010.99
2019-05-05T03:48:14.958Z,1011.02
2019-05-05T03:49:14.947Z,1010.98
2019-05-05T03:50:14.936Z,1011.06
2019-05-05T03:51:18.825Z,1011.04
2019-05-05T03:52:15.956Z,1011.06
2019-05-05T03:53:14.902Z,1011.08
2019-05-05T03:54:14.931Z,1011.10
2019-05-05T03:55:14.884Z,1011.10
2019-05-05T03:56:14.874Z,1011.15
2019-05-05T03:57:14.858Z,1011.11
2019-05-05T03:58:14.846Z,1011.14
2019-05-05T03:59:14.879Z,1011.16
2019-05-05T04:00:14.827Z,1011.15
2019-05-05T04:01:14.816Z,1011.18
2019-05-05T04:02:14.845Z,1011.20
2019-05-05T04:03:14.795Z,1011.20
2019-05-05T04:04:14.779Z,1011.20
2019-05-05T04:05:14.807Z,1011.19
2019-05-05T04:06:14.765Z,1011.25
2019-05-05T04:07:14.789Z,1011.19
2019-05-05T04:08:14.739Z,1011.22
2019-05-05T04:09:14.731Z,1011.23
2019-05-05T04:10:14.756Z,1011.30
2019-05-05T04:11:14.703Z,1011.28
2019-05-05T04:12:14.694Z,1011.32
2019-05-05T04:13:14.682Z,1011.26
2019-05-05T04:14:14.678Z,1011.27
2019-05-05T04:15:14.702Z,1011.24
2019-05-05T04:16:14.648Z,1011.27
2019-05-05T04:17:14.638Z,1011.27
2019-05-05T04:18:14.703Z,1011.28
2019-05-05T04:19:14.615Z,1011.24
2019-05-05T04:20:14.603Z,1011.27
2019-05-05T04:21:14.652Z,1011.30
2019-05-05T04:22:14.627Z,1011.30
2019-05-05T04:23:14.617Z,1011.32
2019-05-05T04:24:14.688Z,1011.33
2019-05-05T04:25:14.549Z,1011.34
2019-05-05T04:26:14.537Z,1011.33
2019-05-05T04:27:14.820Z,1011.38
2019-05-05T04:28:14.514Z,1011.39
2019-05-05T04:29:14.548Z,1011.38
2019-05-05T04:30:14.545Z,1011.38
2019-05-05T04:31:14.482Z,1011.33
2019-05-05T04:32:14.470Z,1011.38
2019-05-05T04:33:14.500Z,1011.33
2019-05-05T04:34:14.452Z,1011.38
2019-05-05T04:35:14.453Z,1011.38
2019-05-05T04:36:14.616Z,1011.36
2019-05-05T04:37:15.073Z,1011.43
2019-05-05T04:38:14.412Z,1011.42
2019-05-05T04:39:14.538Z,1011.40
2019-05-05T04:40:14.941Z,1011.41
2019-05-05T04:41:14.420Z,1011.45
2019-05-05T04:42:14.366Z,1011.40
2019-05-05T04:43:14.534Z,1011.41
2019-05-05T04:44:14.932Z,1011.41
2019-05-05T04:45:14.872Z,1011.39
2019-05-05T04:46:14.356Z,1011.43
2019-05-05T04:47:14.554Z,1011.46
2019-05-05T04:48:14.317Z,1011.45
2019-05-05T04:49:14.282Z,1011.42
2019-05-05T04:50:15.594Z,1011.42
2019-05-05T04:51:14.263Z,1011.44
2019-05-05T04:52:14.420Z,1011.41
2019-05-05T04:53:14.240Z,1011.43
2019-05-05T04:54:14.289Z,1011.44
2019-05-05T04:55:14.255Z,1011.47
2019-05-05T04:56:14.206Z,1011.49
2019-05-05T04:57:14.946Z,1011.48
2019-05-05T04:58:14.182Z,1011.45
2019-05-05T04:59:14.455Z,1011.55
2019-05-05T05:00:14.228Z,1011.55
2019-05-05T05:01:14.149Z,1011.55
2019-05-05T05:02:14.488Z,1011.57
2019-05-05T05:03:14.128Z,1011.56
2019-05-05T05:04:14.162Z,1011.59
2019-05-05T05:05:14.578Z,1011.58
2019-05-05T05:06:14.717Z,1011.58
2019-05-05T05:07:14.129Z,1011.65
2019-05-05T05:08:14.114Z,1011.63
2019-05-05T05:09:14.638Z,1011.67
2019-05-05T05:10:14.055Z,1011.64
2019-05-05T05:11:14.326Z,1011.62
2019-05-05T05:12:14.593Z,1011.59
2019-05-05T05:13:14.020Z,1011.60
2019-05-05T05:14:14.455Z,1011.62
2019-05-05T05:15:14.631Z,1011.60
2019-05-05T05:16:14.072Z,1011.65
2019-05-05T05:17:14.182Z,1011.65
2019-05-05T05:18:14.751Z,1011.64
2019-05-05T05:19:13.994Z,1011.62
2019-05-05T05:20:14.206Z,1011.71
2019-05-05T05:21:14.686Z,1011.66
2019-05-05T05:22:13.920Z,1011.66
2019-05-05T05:23:14.229Z,1011.66
2019-05-05T05:24:14.679Z,1011.70
2019-05-05T05:25:13.931Z,1011.66
2019-05-05T05:26:14.066Z,1011.65
2019-05-05T05:27:13.964Z,1011.74
2019-05-05T05:28:14.476Z,1011.73
2019-05-05T05:29:15.086Z,1011.72
2019-05-05T05:30:13.990Z,1011.70
2019-05-05T05:31:14.125Z,1011.74
2019-05-05T05:32:15.563Z,1011.75
2019-05-05T05:33:14.955Z,1011.83
2019-05-05T05:34:14.826Z,1011.83
2019-05-05T05:35:14.213Z,1011.84
2019-05-05T05:36:14.429Z,1011.82
2019-05-05T05:37:13.757Z,1011.89
2019-05-05T05:38:14.168Z,1011.94
2019-05-05T05:39:14.028Z,1011.92
2019-05-05T05:40:14.406Z,1011.92
2019-05-05T05:41:13.826Z,1011.91
2019-05-05T05:42:13.823Z,1011.90
2019-05-05T05:43:13.979Z,1011.88
2019-05-05T05:44:14.077Z,1011.96
2019-05-05T05:45:14.547Z,1012.00
2019-05-05T05:46:13.708Z,1011.97
2019-05-05T05:47:14.155Z,1011.99
2019-05-05T05:48:14.376Z,1012.00
2019-05-05T05:49:13.623Z,1011.99
2019-05-05T05:50:14.325Z,1012.04
2019-05-05T05:51:14.653Z,1012.03
2019-05-05T05:52:19.085Z,1012.06
2019-05-05T05:53:14.581Z,1012.09
2019-05-05T05:54:14.177Z,1012.09
2019-05-05T05:55:14.598Z,1012.10
2019-05-05T05:56:13.616Z,1012.13
2019-05-05T05:57:13.710Z,1012.08
2019-05-05T05:58:14.165Z,1012.06
2019-05-05T05:59:14.140Z,1012.09
2019-05-05T06:00:14.494Z,1012.06
2019-05-05T06:01:14.713Z,1012.08
2019-05-05T06:02:15.593Z,1012.12
2019-05-05T06:03:14.125Z,1012.05
2019-05-05T06:04:14.484Z,1012.04
2019-05-05T06:05:14.759Z,1012.10
2019-05-05T06:06:13.865Z,1012.12
2019-05-05T06:07:14.241Z,1012.12
2019-05-05T06:08:14.187Z,1012.13
2019-05-05T06:09:14.859Z,1012.12
2019-05-05T06:10:22.121Z,1012.10
2019-05-05T06:11:14.378Z,1012.12
2019-05-05T06:12:14.155Z,1012.12
2019-05-05T06:13:15.279Z,1012.15
2019-05-05T06:14:14.561Z,1012.18
2019-05-05T06:15:14.215Z,1012.17
2019-05-05T06:16:14.562Z,1012.16
2019-05-05T06:17:13.577Z,1012.17
2019-05-05T06:18:13.814Z,1012.25
2019-05-05T06:19:14.087Z,1012.22
2019-05-05T06:20:14.525Z,1012.23
2019-05-05T06:21:13.763Z,1012.24
2019-05-05T06:22:15.165Z,1012.24
2019-05-05T06:23:14.830Z,1012.28
2019-05-05T06:24:13.674Z,1012.24
2019-05-05T06:25:15.860Z,1012.22
2019-05-05T06:26:15.223Z,1012.22
2019-05-05T06:27:14.287Z,1012.21
2019-05-05T06:28:14.508Z,1012.21
2019-05-05T06:29:14.605Z,1012.16
2019-05-05T06:30:13.814Z,1012.20
2019-05-05T06:31:14.001Z,1012.14
2019-05-05T06:32:14.608Z,1012.21
2019-05-05T06:33:13.785Z,1012.22
2019-05-05T06:34:13.966Z,1012.19
2019-05-05T06:35:13.857Z,1012.14
2019-05-05T06:36:14.174Z,1012.18
2019-05-05T06:37:14.482Z,1012.15
2019-05-05T06:38:13.681Z,1012.20
2019-05-05T06:39:13.633Z,1012.15
2019-05-05T06:40:13.915Z,1012.13
2019-05-05T06:41:14.690Z,1012.16
2019-05-05T06:42:13.625Z,1012.16
2019-05-05T06:43:13.907Z,1012.18
2019-05-05T06:44:14.213Z,1012.26
2019-05-05T06:45:14.423Z,1012.23
2019-05-05T06:46:14.603Z,1012.29
2019-05-05T06:47:13.519Z,1012.28
2019-05-05T06:48:13.580Z,1012.31
2019-05-05T06:49:13.623Z,1012.35
2019-05-05T06:50:13.951Z,1012.35
2019-05-05T06:51:14.055Z,1012.37
2019-05-05T06:52:14.279Z,1012.34
2019-05-05T06:53:13.580Z,1012.32
2019-05-05T06:54:13.724Z,1012.36
2019-05-05T06:55:14.079Z,1012.33
2019-05-05T06:56:14.633Z,1012.35
2019-05-05T06:57:13.715Z,1012.32
2019-05-05T06:58:13.683Z,1012.31
2019-05-05T06:59:13.698Z,1012.34
2019-05-05T07:00:13.947Z,1012.34
2019-05-05T07:01:14.281Z,1012.33
2019-05-05T07:02:14.591Z,1012.35
2019-05-05T07:03:13.950Z,1012.32
2019-05-05T07:04:13.942Z,1012.38
2019-05-05T07:05:14.297Z,1012.34
2019-05-05T07:06:14.618Z,1012.37
2019-05-05T07:07:14.553Z,1012.36
2019-05-05T07:08:13.869Z,1012.39
2019-05-05T07:09:13.909Z,1012.37
2019-05-05T07:10:14.077Z,1012.39
2019-05-05T07:11:14.474Z,1012.37
2019-05-05T07:12:13.857Z,1012.38
2019-05-05T07:13:14.021Z,1012.30
2019-05-05T07:14:14.298Z,1012.38
2019-05-05T07:15:14.549Z,1012.35
2019-05-05T07:16:14.734Z,1012.29
2019-05-05T07:17:14.072Z,1012.32
2019-05-05T07:18:14.289Z,1012.38
2019-05-05T07:19:14.597Z,1012.35
2019-05-05T07:20:13.566Z,1012.40
2019-05-05T07:21:14.213Z,1012.36
2019-05-05T07:22:14.073Z,1012.38
2019-05-05T07:23:14.491Z,1012.41
2019-05-05T07:24:14.537Z,1012.40
2019-05-05T07:25:13.767Z,1012.39
2019-05-05T07:26:14.460Z,1012.40
2019-05-05T07:27:13.806Z,1012.43
2019-05-05T07:28:14.517Z,1012.42
2019-05-05T07:29:15.293Z,1012.48
2019-05-05T07:30:13.768Z,1012.50
2019-05-05T07:31:14.306Z,1012.50
2019-05-05T07:32:14.143Z,1012.53
2019-05-05T07:33:14.723Z,1012.52
2019-05-05T07:34:13.683Z,1012.55
2019-05-05T07:35:14.455Z,1012.51
2019-05-05T07:36:14.547Z,1012.54
2019-05-05T07:37:14.359Z,1012.55
2019-05-05T07:38:13.822Z,1012.52
2019-05-05T07:39:14.368Z,1012.50
2019-05-05T07:40:13.558Z,1012.54
2019-05-05T07:41:14.096Z,1012.54
2019-05-05T07:42:13.710Z,1012.57
2019-05-05T07:43:14.492Z,1012.52
2019-05-05T07:44:25.884Z,1012.53
2019-05-05T07:45:22.104Z,1012.46
2019-05-05T07:46:13.639Z,1012.41
2019-05-05T07:47:14.454Z,1012.52
2019-05-05T07:48:13.874Z,1012.56
2019-05-05T07:49:13.851Z,1012.52
2019-05-05T07:50:26.463Z,1012.54
2019-05-05T07:51:14.182Z,1012.47
2019-05-05T07:52:14.873Z,1012.53
2019-05-05T07:53:17.529Z,1012.50
2019-05-05T07:54:14.464Z,1012.49
2019-05-05T07:55:14.254Z,1012.48
2019-05-05T07:56:14.291Z,1012.51
2019-05-05T07:57:14.486Z,1012.52
2019-05-05T07:58:13.929Z,1012.50
2019-05-05T07:59:14.401Z,1012.56
2019-05-05T08:00:12.182Z,1012.56
2019-05-05T08:01:14.087Z,1012.57
2019-05-05T08:02:14.422Z,1012.52
2019-05-05T08:03:14.225Z,1012.55
2019-05-05T08:04:13.696Z,1012.54
2019-05-05T08:05:14.111Z,1012.52
2019-05-05T08:06:14.321Z,1012.53
2019-05-05T08:07:12.107Z,1012.55
2019-05-05T08:08:13.876Z,1012.51
2019-05-05T08:09:12.080Z,1012.54
2019-05-05T08:10:13.695Z,1012.53
2019-05-05T08:11:12.058Z,1012.55
2019-05-05T08:12:13.709Z,1012.56
2019-05-05T08:13:14.179Z,1012.59
2019-05-05T08:14:14.375Z,1012.60
2019-05-05T08:15:12.015Z,1012.59
2019-05-05T08:16:13.996Z,1012.67
2019-05-05T08:17:11.993Z,1012.66
2019-05-05T08:18:13.854Z,1012.67
2019-05-05T08:19:13.795Z,1012.72
2019-05-05T08:20:14.178Z,1012.68
2019-05-05T08:21:13.625Z,1012.64
2019-05-05T08:22:14.018Z,1012.63
2019-05-05T08:23:28.010Z,1012.62
2019-05-05T08:24:13.952Z,1012.66
2019-05-05T08:25:11.961Z,1012.70
2019-05-05T08:26:13.700Z,1012.63
2019-05-05T08:27:11.881Z,1012.68
2019-05-05T08:28:11.884Z,1012.63
2019-05-05T08:29:13.643Z,1012.64
2019-05-05T08:30:13.974Z,1012.62
2019-05-05T08:31:11.881Z,1012.65
2019-05-05T08:32:13.606Z,1012.65
2019-05-05T08:33:13.910Z,1012.65
2019-05-05T08:34:11.809Z,1012.68
2019-05-05T08:35:11.794Z,1012.71
2019-05-05T08:36:11.787Z,1012.69
2019-05-05T08:37:11.833Z,1012.71
2019-05-05T08:38:13.693Z,1012.68
2019-05-05T08:39:11.758Z,1012.67
2019-05-05T08:40:11.738Z,1012.67
2019-05-05T08:41:13.724Z,1012.63
2019-05-05T08:42:11.788Z,1012.67
2019-05-05T08:43:13.686Z,1012.66
2019-05-05T08:44:11.700Z,1012.59
2019-05-05T08:45:13.673Z,1012.54
2019-05-05T08:46:14.162Z,1012.51
2019-05-05T08:47:13.794Z,1012.55
2019-05-05T08:48:14.035Z,1012.55
2019-05-05T08:49:13.621Z,1012.57
2019-05-05T08:50:13.604Z,1012.53
2019-05-05T08:51:11.620Z,1012.55
2019-05-05T08:52:11.646Z,1012.57
2019-05-05T08:53:13.691Z,1012.49
2019-05-05T08:54:11.581Z,1012.49
2019-05-05T08:55:13.834Z,1012.55
2019-05-05T08:56:11.566Z,1012.52
2019-05-05T08:57:11.561Z,1012.50
2019-05-05T08:58:11.542Z,1012.49
2019-05-05T08:59:11.575Z,1012.52
2019-05-05T09:00:13.722Z,1012.53
2019-05-05T09:01:11.506Z,1012.55
2019-05-05T09:02:11.500Z,1012.52
2019-05-05T09:03:13.745Z,1012.60
2019-05-05T09:04:11.513Z,1012.53
2019-05-05T09:05:11.459Z,1012.47
2019-05-05T09:06:13.551Z,1012.48
2019-05-05T09:07:13.564Z,1012.52
2019-05-05T09:08:13.637Z,1012.57
2019-05-05T09:09:11.415Z,1012.58
2019-05-05T09:10:11.401Z,1012.53
2019-05-05T09:11:13.827Z,1012.54
2019-05-05T09:12:13.733Z,1012.52
2019-05-05T09:13:11.424Z,1012.58
2019-05-05T09:14:11.409Z,1012.55
2019-05-05T09:15:13.472Z,1012.53
2019-05-05T09:16:11.338Z,1012.56
2019-05-05T09:17:13.539Z,1012.54
2019-05-05T09:18:11.313Z,1012.55
2019-05-05T09:19:11.307Z,1012.57
2019-05-05T09:20:13.531Z,1012.61
2019-05-05T09:21:13.569Z,1012.62
2019-05-05T09:22:11.271Z,1012.59
2019-05-05T09:23:11.259Z,1012.58
2019-05-05T09:24:11.247Z,1012.60
2019-05-05T09:25:13.537Z,1012.59
2019-05-05T09:26:11.222Z,1012.62
2019-05-05T09:27:11.264Z,1012.61
2019-05-05T09:28:11.199Z,1012.65
2019-05-05T09:29:11.191Z,1012.65
2019-05-05T09:30:11.177Z,1012.65
2019-05-05T09:31:11.173Z,1012.67
2019-05-05T09:32:11.202Z,1012.66
2019-05-05T09:33:11.188Z,1012.67
2019-05-05T09:34:11.133Z,1012.69
2019-05-05T09:35:11.124Z,1012.69
2019-05-05T09:36:13.800Z,1012.69
2019-05-05T09:37:11.129Z,1012.68
2019-05-05T09:38:11.130Z,1012.68
2019-05-05T09:39:11.088Z,1012.65
2019-05-05T09:40:11.065Z,1012.64
2019-05-05T09:41:11.055Z,1012.54
2019-05-05T09:42:11.043Z,1012.54
2019-05-05T09:43:11.074Z,1012.46
2019-05-05T09:44:11.020Z,1012.46
2019-05-05T09:45:11.015Z,1012.39
2019-05-05T09:46:10.998Z,1012.36
2019-05-05T09:47:10.987Z,1012.45
2019-05-05T09:48:11.013Z,1012.43
2019-05-05T09:49:10.970Z,1012.43
2019-05-05T09:50:10.956Z,1012.47
2019-05-05T09:51:10.941Z,1012.48
2019-05-05T09:52:10.929Z,1012.49
2019-05-05T09:53:10.961Z,1012.54
2019-05-05T09:54:14.615Z,1012.49
2019-05-05T09:55:13.761Z,1012.52
2019-05-05T09:56:10.888Z,1012.49
2019-05-05T09:57:10.871Z,1012.49
2019-05-05T09:58:10.911Z,1012.51
2019-05-05T09:59:10.849Z,1012.57
2019-05-05T10:00:10.839Z,1012.41
2019-05-05T10:01:10.831Z,1012.41
2019-05-05T10:02:10.819Z,1012.41
2019-05-05T10:03:10.805Z,1012.35
2019-05-05T10:04:10.838Z,1012.40
2019-05-05T10:05:10.785Z,1012.42
2019-05-05T10:06:10.782Z,1012.38
2019-05-05T10:07:10.791Z,1012.34
2019-05-05T10:08:10.794Z,1012.42
2019-05-05T10:09:10.776Z,1012.35
2019-05-05T10:10:10.731Z,1012.36
2019-05-05T10:11:10.712Z,1012.43
2019-05-05T10:12:10.707Z,1012.43
2019-05-05T10:13:10.737Z,1012.45
2019-05-05T10:14:10.681Z,1012.42
2019-05-05T10:15:10.675Z,1012.39
2019-05-05T10:16:10.656Z,1012.42
2019-05-05T10:17:10.652Z,1012.38
2019-05-05T10:18:10.679Z,1012.37
2019-05-05T10:19:10.622Z,1012.40
2019-05-05T10:20:10.609Z,1012.33
2019-05-05T10:21:10.600Z,1012.34
2019-05-05T10:22:10.593Z,1012.33
2019-05-05T10:23:10.626Z,1012.34
2019-05-05T10:24:10.565Z,1012.27
2019-05-05T10:25:10.595Z,1012.26
2019-05-05T10:26:10.543Z,1012.25
2019-05-05T10:27:10.533Z,1012.19
2019-05-05T10:28:10.523Z,1012.26
2019-05-05T10:29:10.507Z,1012.25
2019-05-05T10:30:10.730Z,1012.21
2019-05-05T10:31:10.918Z,1012.20
2019-05-05T10:32:10.473Z,1012.22
2019-05-05T10:33:10.464Z,1012.20
2019-05-05T10:34:10.506Z,1012.19
2019-05-05T10:35:10.439Z,1012.13
2019-05-05T10:36:10.429Z,1012.13
2019-05-05T10:37:10.418Z,1012.23
2019-05-05T10:38:10.410Z,1012.22
2019-05-05T10:39:10.396Z,1012.36
2019-05-05T10:40:10.457Z,1012.31
2019-05-05T10:41:10.377Z,1012.34
2019-05-05T10:42:10.368Z,1012.41
2019-05-05T10:43:10.349Z,1012.50
2019-05-05T10:44:10.339Z,1012.49
2019-05-05T10:45:10.367Z,1012.51
2019-05-05T10:46:10.321Z,1012.55
2019-05-05T10:47:10.307Z,1012.68
2019-05-05T10:48:10.302Z,1012.59
2019-05-05T10:49:10.336Z,1012.53
2019-05-05T10:50:10.283Z,1012.61
2019-05-05T10:51:10.262Z,1012.45
2019-05-05T10:52:10.295Z,1012.47
2019-05-05T10:53:10.242Z,1012.44
2019-05-05T10:54:10.222Z,1012.40
2019-05-05T10:55:10.213Z,1012.42
2019-05-05T10:56:10.207Z,1012.42
2019-05-05T10:57:10.193Z,1012.45
2019-05-05T10:58:10.238Z,1012.50
2019-05-05T10:59:10.172Z,1012.50
2019-05-05T11:00:13.189Z,1012.58
2019-05-05T11:01:11.140Z,1012.56
2019-05-05T11:02:10.133Z,1012.53
2019-05-05T11:03:10.123Z,1012.54
2019-05-05T11:04:10.149Z,1012.56
2019-05-05T11:05:10.103Z,1012.58
2019-05-05T11:06:10.088Z,1012.57
2019-05-05T11:07:10.077Z,1012.58
2019-05-05T11:08:10.113Z,1012.53
2019-05-05T11:09:10.060Z,1012.56
2019-05-05T11:10:10.054Z,1012.58
2019-05-05T11:11:10.029Z,1012.55
2019-05-05T11:12:10.019Z,1012.57
2019-05-05T11:13:10.021Z,1012.61
2019-05-05T11:14:10.039Z,1012.58
2019-05-05T11:15:09.986Z,1012.54
2019-05-05T11:16:09.983Z,1012.50
2019-05-05T11:17:09.964Z,1012.57
2019-05-05T11:18:09.954Z,1012.56
2019-05-05T11:19:09.987Z,1012.51
2019-05-05T11:20:09.927Z,1012.44
2019-05-05T11:21:09.917Z,1012.47
2019-05-05T11:22:09.906Z,1012.43
2019-05-05T11:23:09.892Z,1012.57
2019-05-05T11:24:09.883Z,1012.48
2019-05-05T11:25:09.912Z,1012.46
2019-05-05T11:26:09.859Z,1012.56
2019-05-05T11:27:09.848Z,1012.38
2019-05-05T11:28:10.111Z,1012.44
2019-05-05T11:29:09.828Z,1012.31
2019-05-05T11:30:09.859Z,1012.41
2019-05-05T11:31:09.809Z,1012.55
2019-05-05T11:32:09.792Z,1012.59
2019-05-05T11:33:09.782Z,1012.63
2019-05-05T11:34:09.767Z,1012.50
2019-05-05T11:35:09.756Z,1012.41
2019-05-05T11:36:09.792Z,1012.35
2019-05-05T11:37:09.740Z,1012.48
2019-05-05T11:38:09.723Z,1012.42
2019-05-05T11:39:09.714Z,1012.46
2019-05-05T11:40:09.702Z,1012.44
2019-05-05T11:41:09.690Z,1012.57
2019-05-05T11:42:09.742Z,1012.47
2019-05-05T11:43:09.705Z,1012.36
2019-05-05T11:44:09.659Z,1012.37
2019-05-05T11:45:09.648Z,1012.55
2019-05-05T11:46:09.704Z,1012.40
2019-05-05T11:47:09.624Z,1012.31
2019-05-05T11:48:09.608Z,1012.43
2019-05-05T11:49:09.602Z,1012.39
2019-05-05T11:50:09.588Z,1012.53
2019-05-05T11:51:09.620Z,1012.36
2019-05-05T11:52:09.576Z,1012.35
2019-05-05T11:53:09.555Z,1012.34
2019-05-05T11:54:09.544Z,1012.35
2019-05-05T11:55:12.174Z,1012.29
2019-05-05T11:56:09.519Z,1012.34
2019-05-05T11:57:09.553Z,1012.32
2019-05-05T11:58:09.502Z,1012.32
2019-05-05T11:59:09.489Z,1012.36
2019-05-05T12:00:09.485Z,1012.41
2019-05-05T12:01:09.468Z,1012.43
2019-05-05T12:02:09.456Z,1012.44
2019-05-05T12:03:09.488Z,1012.56
2019-05-05T12:04:09.434Z,1012.54
2019-05-05T12:05:09.422Z,1012.54